Time;durP1;ratioP1;P1;durP2;ratioP2;P2;SDS_P1;SDS_P2;PMS_P1;PMS_P2;Temp;Humidity;BMP_temperature;BMP_pressure;BME280_temperature;BME280_humidity;BME280_pressure;Samples;Min_cycle;Max_cycle;Signal;HPM_P1;HPM_P2
2023/04/07 00:02:20;;;;;;;37.33;18.00;;;4.50;99.90;;;;;;5032388;28;20647;-76
2023/04/07 00:04:48;;;;;;;35.73;17.03;;;4.50;99.90;;;;;;5032415;28;20198;-76
2023/04/07 00:07:15;;;;;;;37.03;17.93;;;4.60;99.90;;;;;;5032200;28;20191;-75
2023/04/07 00:09:41;;;;;;;38.77;18.50;;;4.50;99.90;;;;;;5033564;28;20205;-75
2023/04/07 00:12:09;;;;;;;37.57;18.80;;;4.60;99.90;;;;;;5035081;28;20202;-75
2023/04/07 00:14:36;;;;;;;34.93;17.43;;;4.60;99.90;;;;;;5035213;28;20229;-75
2023/04/07 00:17:02;;;;;;;36.03;18.33;;;4.70;99.90;;;;;;5035459;28;20194;-73
2023/04/07 00:19:30;;;;;;;37.77;18.50;;;4.70;99.90;;;;;;5035384;28;20290;-74
2023/04/07 00:21:57;;;;;;;33.17;17.80;;;4.70;99.90;;;;;;5035283;28;20223;-73
2023/04/07 00:24:23;;;;;;;33.10;17.60;;;4.70;99.90;;;;;;5035075;28;20217;-74
2023/04/07 00:27:00;;;;;;;36.93;18.60;;;4.80;99.90;;;;;;5052855;28;20553;-74
2023/04/07 00:29:28;;;;;;;36.27;18.97;;;4.80;99.90;;;;;;5035145;28;20196;-76
2023/04/07 00:31:55;;;;;;;37.73;18.63;;;4.90;99.90;;;;;;5053187;28;20537;-75
2023/04/07 00:34:22;;;;;;;37.23;18.43;;;4.90;99.90;;;;;;5035469;28;20233;-75
2023/04/07 00:36:51;;;;;;;37.50;18.57;;;4.90;99.90;;;;;;5034907;28;20250;-73
2023/04/07 00:39:19;;;;;;;34.53;17.27;;;4.90;99.90;;;;;;5035005;28;20223;-75
2023/04/07 00:41:46;;;;;;;35.43;17.57;;;4.90;99.90;;;;;;5052648;28;20215;-76
2023/04/07 00:44:13;;;;;;;38.63;18.50;;;4.90;99.90;;;;;;5035279;28;20197;-79
2023/04/07 00:46:40;;;;;;;39.70;18.70;;;4.90;99.90;;;;;;5052795;28;20647;-77
2023/04/07 00:49:07;;;;;;;38.67;18.90;;;4.90;99.90;;;;;;5034976;28;20193;-76
2023/04/07 00:51:37;;;;;;;36.53;19.17;;;5.00;99.90;;;;;;5051761;28;20201;-73
2023/04/07 00:54:04;;;;;;;36.70;19.70;;;5.00;99.90;;;;;;5014596;28;20319;-73
2023/04/07 00:56:31;;;;;;;35.53;18.43;;;5.00;99.90;;;;;;5014804;28;20551;-74
2023/04/07 00:58:58;;;;;;;39.43;19.03;;;5.00;99.90;;;;;;5014937;28;20190;-74
2023/04/07 01:01:41;;;;;;;38.00;18.97;;;5.00;99.90;;;;;;5014787;28;20653;-73
2023/04/07 01:04:16;;;;;;;40.73;19.30;;;5.00;99.90;;;;;;5032932;28;20591;-74
2023/04/07 01:06:49;;;;;;;37.37;19.43;;;5.00;99.90;;;;;;5014521;28;20640;-74
2023/04/07 01:09:21;;;;;;;39.17;18.93;;;5.00;99.90;;;;;;5032563;28;20194;-73
2023/04/07 01:12:22;;;;;;;38.90;20.40;;;5.00;99.90;;;;;;5014315;28;20241;-74
2023/04/07 01:14:59;;;;;;;41.30;19.30;;;5.00;99.90;;;;;;4978279;28;20574;-73
2023/04/07 01:17:27;;;;;;;40.50;20.53;;;5.00;99.90;;;;;;5032515;28;20220;-74
2023/04/07 01:19:57;;;;;;;42.37;20.30;;;5.10;99.90;;;;;;5014870;28;20651;-74
2023/04/07 01:22:31;;;;;;;42.80;20.87;;;5.10;99.90;;;;;;5014591;28;20226;-74
2023/04/07 01:25:19;;;;;;;40.40;19.70;;;5.10;99.90;;;;;;5014499;28;20230;-73
2023/04/07 01:28:02;;;;;;;41.27;20.43;;;5.20;99.90;;;;;;5032057;28;20197;-73
2023/04/07 01:30:32;;;;;;;41.90;20.30;;;5.20;99.90;;;;;;5014598;28;20657;-73
2023/04/07 01:33:00;;;;;;;43.23;20.87;;;5.20;99.90;;;;;;5032296;28;20195;-74
2023/04/07 01:35:31;;;;;;;40.57;20.27;;;5.20;99.90;;;;;;5014647;28;20265;-74
2023/04/07 01:37:59;;;;;;;41.17;20.30;;;5.20;99.90;;;;;;5014402;28;20205;-75
2023/04/07 01:40:28;;;;;;;48.67;21.83;;;5.20;99.90;;;;;;5031972;28;20290;-75
2023/04/07 01:42:56;;;;;;;47.67;21.30;;;5.30;99.90;;;;;;5032346;28;20557;-75
2023/04/07 01:45:25;;;;;;;42.70;21.87;;;5.30;99.90;;;;;;5014623;28;20212;-74
2023/04/07 01:47:54;;;;;;;47.33;21.93;;;5.30;99.90;;;;;;5014580;28;20682;-75
2023/04/07 01:50:22;;;;;;;45.27;22.37;;;5.30;99.90;;;;;;5014573;28;20203;-75
2023/04/07 01:52:49;;;;;;;44.60;21.97;;;5.30;99.90;;;;;;5032014;28;20277;-75
2023/04/07 01:55:16;;;;;;;44.67;21.67;;;5.40;99.90;;;;;;5014042;28;20328;-75
2023/04/07 01:57:43;;;;;;;47.97;22.37;;;5.40;99.90;;;;;;5014383;28;20194;-75
2023/04/07 02:00:10;;;;;;;52.13;22.57;;;5.30;99.90;;;;;;5014377;28;20193;-75
2023/04/07 02:02:43;;;;;;;46.17;21.63;;;5.30;99.90;;;;;;5032252;28;20190;-75
2023/04/07 02:05:13;;;;;;;48.37;24.30;;;5.30;99.90;;;;;;5015374;28;20653;-75
2023/04/07 02:07:48;;;;;;;61.07;23.27;;;5.40;99.90;;;;;;5017692;28;20297;-75
2023/04/07 02:10:19;;;;;;;50.63;23.20;;;5.40;99.90;;;;;;5017963;28;20248;-75
2023/04/07 02:12:46;;;;;;;50.13;21.80;;;5.40;99.90;;;;;;5018021;28;20230;-75
2023/04/07 02:15:15;;;;;;;51.10;23.73;;;5.40;99.90;;;;;;5017674;28;20222;-75
2023/04/07 02:17:46;;;;;;;53.80;23.30;;;5.40;99.90;;;;;;5017562;28;20195;-75
2023/04/07 02:20:15;;;;;;;52.30;23.97;;;5.50;99.90;;;;;;5017645;28;20207;-74
2023/04/07 02:22:43;;;;;;;50.83;22.73;;;5.50;99.90;;;;;;5034999;28;20222;-74
2023/04/07 02:25:28;;;;;;;48.00;23.50;;;5.50;99.90;;;;;;5001207;28;20201;-75
2023/04/07 02:27:57;;;;;;;48.63;23.53;;;5.50;99.90;;;;;;5035212;28;20274;-75
2023/04/07 02:30:25;;;;;;;47.30;23.23;;;5.60;99.90;;;;;;5035205;28;20203;-75
2023/04/07 02:32:52;;;;;;;51.83;23.17;;;5.60;99.90;;;;;;5017638;28;20198;-75
2023/04/07 02:35:20;;;;;;;50.40;22.53;;;5.60;99.90;;;;;;5017283;28;20222;-75
2023/04/07 02:37:47;;;;;;;60.17;23.77;;;5.50;99.90;;;;;;5017431;28;20230;-75
2023/04/07 02:40:14;;;;;;;50.33;23.77;;;5.60;99.90;;;;;;5017344;28;20245;-74
2023/04/07 02:42:41;;;;;;;52.90;22.60;;;5.60;99.90;;;;;;5017378;28;20230;-75
2023/04/07 02:45:09;;;;;;;55.13;24.83;;;5.70;99.90;;;;;;5017168;28;20548;-75
2023/04/07 02:47:37;;;;;;;50.27;23.90;;;5.70;99.90;;;;;;5034661;28;20184;-73
2023/04/07 02:50:04;;;;;;;51.90;23.63;;;5.60;99.90;;;;;;5017540;28;20641;-74
2023/04/07 02:52:31;;;;;;;54.70;23.70;;;5.60;99.90;;;;;;5017342;28;20193;-74
2023/04/07 02:54:58;;;;;;;55.00;24.87;;;5.70;99.90;;;;;;5034951;28;20217;-74
2023/04/07 02:57:25;;;;;;;53.20;24.33;;;5.70;99.90;;;;;;5016820;28;20301;-74
2023/04/07 02:59:54;;;;;;;54.50;24.87;;;5.70;99.90;;;;;;5034925;28;20199;-73
2023/04/07 03:02:20;;;;;;;53.67;23.97;;;5.70;99.90;;;;;;5034396;28;20225;-73
2023/04/07 03:04:49;;;;;;;53.33;24.50;;;5.80;99.90;;;;;;5017195;28;20199;-73
2023/04/07 03:07:15;;;;;;;51.63;24.77;;;5.80;99.90;;;;;;5034530;28;20250;-75
2023/04/07 03:09:42;;;;;;;50.77;24.40;;;5.70;99.90;;;;;;5034172;28;20195;-76
2023/04/07 03:12:10;;;;;;;49.07;24.13;;;5.80;99.90;;;;;;5016383;28;20626;-74
2023/04/07 03:14:37;;;;;;;52.03;24.63;;;5.80;99.90;;;;;;5034661;28;20213;-74
2023/04/07 03:17:04;;;;;;;54.13;24.00;;;5.80;99.90;;;;;;5016004;28;20323;-74
2023/04/07 03:19:31;;;;;;;54.07;24.03;;;5.90;99.90;;;;;;5016679;28;20212;-74
2023/04/07 03:21:58;;;;;;;52.37;24.97;;;5.90;99.90;;;;;;5016651;28;20754;-74
2023/04/07 03:24:25;;;;;;;51.73;25.07;;;5.90;99.90;;;;;;5051193;28;20193;-74
2023/04/07 03:26:52;;;;;;;52.37;24.87;;;5.90;99.90;;;;;;5036523;28;20197;-75
2023/04/07 03:29:19;;;;;;;47.50;23.70;;;5.90;99.90;;;;;;5036475;28;20183;-74
2023/04/07 03:31:46;;;;;;;52.57;25.17;;;5.90;99.90;;;;;;5054012;28;20191;-74
2023/04/07 03:34:13;;;;;;;52.83;25.30;;;5.90;99.90;;;;;;5036218;28;20281;-75
2023/04/07 03:36:40;;;;;;;50.30;24.40;;;5.90;99.90;;;;;;5036010;28;20245;-74
2023/04/07 03:39:07;;;;;;;53.67;24.87;;;5.90;99.90;;;;;;5036303;28;20210;-74
2023/04/07 03:41:34;;;;;;;50.63;24.87;;;5.90;99.90;;;;;;5036059;28;20194;-75
2023/04/07 03:44:01;;;;;;;50.33;24.87;;;6.00;99.90;;;;;;5036026;28;20183;-74
2023/04/07 03:46:27;;;;;;;54.80;26.23;;;6.00;99.90;;;;;;5035628;28;20664;-74
2023/04/07 03:48:54;;;;;;;55.53;25.27;;;5.90;99.90;;;;;;5035797;28;20197;-74
2023/04/07 03:51:21;;;;;;;53.87;25.97;;;5.90;99.90;;;;;;5035952;28;20193;-74
2023/04/07 03:53:48;;;;;;;51.73;24.83;;;5.90;99.90;;;;;;5035775;28;20231;-73
2023/04/07 03:56:15;;;;;;;56.67;25.63;;;5.90;99.90;;;;;;5035788;28;20215;-74
2023/04/07 03:58:43;;;;;;;57.43;27.50;;;6.00;99.90;;;;;;5035575;28;20637;-72
2023/04/07 04:01:10;;;;;;;57.73;27.53;;;6.00;99.90;;;;;;5035368;28;20198;-73
2023/04/07 04:03:37;;;;;;;58.50;26.23;;;6.00;99.90;;;;;;5035606;28;20229;-73
2023/04/07 04:06:04;;;;;;;56.63;25.77;;;6.00;99.90;;;;;;5035909;28;20210;-72
2023/04/07 04:08:31;;;;;;;60.53;27.40;;;6.00;99.90;;;;;;5035471;28;20213;-74
2023/04/07 04:10:58;;;;;;;60.30;26.93;;;6.00;99.90;;;;;;5035020;28;20240;-73
2023/04/07 04:13:25;;;;;;;62.43;27.27;;;6.00;99.90;;;;;;5053405;28;20213;-72
2023/04/07 04:15:54;;;;;;;57.23;28.07;;;6.00;99.90;;;;;;5052899;28;20691;-72
2023/04/07 04:18:21;;;;;;;57.77;27.03;;;6.00;99.90;;;;;;5053118;28;20188;-71
2023/04/07 04:20:48;;;;;;;62.17;27.73;;;6.10;99.90;;;;;;5053122;28;20215;-72
2023/04/07 04:23:15;;;;;;;61.30;27.00;;;6.10;99.90;;;;;;5035074;28;20652;-72
2023/04/07 04:25:42;;;;;;;57.07;26.70;;;6.10;99.90;;;;;;5035086;28;20576;-72
2023/04/07 04:28:08;;;;;;;57.23;27.60;;;6.10;99.90;;;;;;5034216;28;20198;-73
2023/04/07 04:30:35;;;;;;;65.00;27.83;;;6.10;99.90;;;;;;5052727;28;20190;-72
2023/04/07 04:33:02;;;;;;;56.83;27.43;;;6.10;99.90;;;;;;5034714;28;20197;-72
2023/04/07 04:35:29;;;;;;;58.50;27.23;;;6.10;99.90;;;;;;5034638;28;20224;-72
2023/04/07 04:37:56;;;;;;;60.50;27.43;;;6.10;99.90;;;;;;5052513;28;20230;-72
2023/04/07 04:40:23;;;;;;;56.23;27.73;;;6.10;99.90;;;;;;5034977;28;20220;-72
2023/04/07 04:42:50;;;;;;;58.57;27.50;;;6.20;99.90;;;;;;5034679;28;20259;-71
2023/04/07 04:45:17;;;;;;;57.33;27.43;;;6.10;99.90;;;;;;5052255;28;20305;-72
2023/04/07 04:47:44;;;;;;;58.87;27.50;;;6.20;99.90;;;;;;5034891;28;20203;-72
2023/04/07 04:50:11;;;;;;;56.30;26.97;;;6.10;99.90;;;;;;5052732;28;20188;-72
2023/04/07 04:52:39;;;;;;;55.97;26.33;;;6.20;99.90;;;;;;5035204;28;20199;-73
2023/04/07 04:55:07;;;;;;;59.43;27.80;;;6.20;99.90;;;;;;5052449;28;20193;-73
2023/04/07 04:57:34;;;;;;;57.93;27.47;;;6.20;99.90;;;;;;5034744;28;20198;-73
2023/04/07 05:00:03;;;;;;;57.87;27.40;;;6.10;99.90;;;;;;5034547;28;20310;-73
2023/04/07 05:02:30;;;;;;;57.97;27.63;;;6.20;99.90;;;;;;5034679;28;20214;-73
2023/04/07 05:04:57;;;;;;;57.23;27.20;;;6.20;99.90;;;;;;5052409;28;20194;-72
2023/04/07 05:07:24;;;;;;;53.67;25.83;;;6.20;99.90;;;;;;5034919;28;20623;-72
2023/04/07 05:09:51;;;;;;;56.57;27.27;;;6.20;99.90;;;;;;5034192;28;20201;-73
2023/04/07 05:12:18;;;;;;;55.07;27.90;;;6.20;99.90;;;;;;5034563;28;20197;-72
2023/04/07 05:14:45;;;;;;;56.97;27.40;;;6.30;99.90;;;;;;5052519;28;20256;-73
2023/04/07 05:17:11;;;;;;;56.37;26.77;;;6.30;99.90;;;;;;5034091;28;20222;-73
2023/04/07 05:19:38;;;;;;;63.33;28.83;;;6.40;99.90;;;;;;5052375;28;20202;-72
2023/04/07 05:22:05;;;;;;;56.83;26.93;;;6.40;99.90;;;;;;5052186;28;20217;-73
2023/04/07 05:24:32;;;;;;;57.93;27.37;;;6.40;99.90;;;;;;5034589;28;20206;-74
2023/04/07 05:27:00;;;;;;;56.53;28.40;;;6.40;99.90;;;;;;5033924;28;20655;-72
2023/04/07 05:29:27;;;;;;;61.50;28.37;;;6.50;99.90;;;;;;5034309;28;20243;-73
2023/04/07 05:31:54;;;;;;;57.87;27.77;;;6.60;99.90;;;;;;5034221;28;20574;-71
2023/04/07 05:34:21;;;;;;;52.23;27.60;;;6.50;99.90;;;;;;5034504;28;20299;-74
2023/04/07 05:36:48;;;;;;;57.53;26.97;;;6.50;99.90;;;;;;5051929;28;20213;-74
2023/04/07 05:39:15;;;;;;;58.80;27.97;;;6.50;99.90;;;;;;5035973;28;20191;-74
2023/04/07 05:41:42;;;;;;;54.97;27.83;;;6.50;99.90;;;;;;5038133;28;20565;-74
2023/04/07 05:44:09;;;;;;;56.17;26.87;;;6.50;99.90;;;;;;5037835;28;20212;-74
2023/04/07 05:46:35;;;;;;;55.63;28.37;;;6.50;99.90;;;;;;5055867;28;20236;-74
2023/04/07 05:49:03;;;;;;;55.03;28.30;;;6.60;99.90;;;;;;5038467;28;20187;-74
2023/04/07 05:51:45;;;;;;;55.30;28.23;;;6.60;99.90;;;;;;5038299;28;20237;-73
2023/04/07 05:54:14;;;;;;;57.57;28.63;;;6.60;99.90;;;;;;5037705;28;20286;-74
2023/04/07 05:56:41;;;;;;;57.10;28.03;;;6.60;99.90;;;;;;5037611;28;20336;-73
2023/04/07 05:59:08;;;;;;;57.27;28.07;;;6.60;99.90;;;;;;5038171;28;20201;-73
2023/04/07 06:01:35;;;;;;;55.83;28.47;;;6.60;99.90;;;;;;5055801;28;20221;-73
2023/04/07 06:04:03;;;;;;;55.70;28.27;;;6.70;99.90;;;;;;5037720;28;20300;-73
2023/04/07 06:06:30;;;;;;;56.70;28.20;;;6.70;99.90;;;;;;5037762;28;20233;-73
2023/04/07 06:08:57;;;;;;;55.90;27.77;;;6.70;99.90;;;;;;5055649;28;20231;-73
2023/04/07 06:11:25;;;;;;;56.23;28.70;;;6.70;99.90;;;;;;5037362;28;20616;-72
2023/04/07 06:13:52;;;;;;;58.63;28.73;;;6.80;99.90;;;;;;5037676;28;20199;-73
2023/04/07 06:16:19;;;;;;;53.87;27.87;;;6.80;99.90;;;;;;5037420;28;20236;-73
2023/04/07 06:18:46;;;;;;;54.60;27.80;;;6.80;99.90;;;;;;5055440;28;20232;-74
2023/04/07 06:21:13;;;;;;;58.40;29.00;;;6.90;99.90;;;;;;5037417;28;20264;-74
2023/04/07 06:23:40;;;;;;;55.50;29.20;;;6.90;99.90;;;;;;5037415;28;20198;-74
2023/04/07 06:26:13;;;;;;;55.87;28.23;;;6.90;99.90;;;;;;5037074;28;20579;-74
2023/04/07 06:28:40;;;;;;;55.40;28.17;;;6.90;99.90;;;;;;5055609;28;20277;-73
2023/04/07 06:31:07;;;;;;;53.50;27.37;;;7.00;99.90;;;;;;5020983;28;20207;-73
2023/04/07 06:33:35;;;;;;;53.67;27.47;;;6.90;99.90;;;;;;5037258;28;20195;-73
2023/04/07 06:36:01;;;;;;;54.43;28.67;;;6.90;99.90;;;;;;5055387;28;20245;-74
2023/04/07 06:38:28;;;;;;;51.40;27.50;;;6.90;99.90;;;;;;5037221;28;20285;-73
2023/04/07 06:40:55;;;;;;;51.93;27.47;;;6.90;99.90;;;;;;5054828;28;20204;-72
2023/04/07 06:43:23;;;;;;;54.23;28.07;;;6.90;99.90;;;;;;5037111;28;20206;-73
2023/04/07 06:45:53;;;;;;;50.30;27.63;;;6.90;99.90;;;;;;5037175;28;20198;-73
2023/04/07 06:48:21;;;;;;;53.80;28.50;;;6.80;99.90;;;;;;5037006;28;20252;-72
2023/04/07 06:50:50;;;;;;;55.03;28.80;;;7.00;99.90;;;;;;5054307;28;20206;-72
2023/04/07 06:53:17;;;;;;;55.93;28.83;;;7.00;99.90;;;;;;5037032;28;20222;-74
2023/04/07 06:55:44;;;;;;;57.37;29.23;;;7.20;99.90;;;;;;5037166;28;20199;-72
2023/04/07 06:58:11;;;;;;;54.90;28.87;;;7.10;99.90;;;;;;5037071;28;20206;-75
2023/04/07 07:00:38;;;;;;;52.53;27.37;;;7.20;99.90;;;;;;5054551;28;20659;-74
2023/04/07 07:03:06;;;;;;;58.27;29.20;;;7.30;99.90;;;;;;5037100;28;20205;-76
2023/04/07 07:05:34;;;;;;;52.37;28.37;;;7.40;99.90;;;;;;5037056;28;20206;-75
2023/04/07 07:08:01;;;;;;;50.77;27.97;;;7.40;99.90;;;;;;5054527;28;20193;-76
2023/04/07 07:10:28;;;;;;;53.10;27.43;;;7.60;99.90;;;;;;5036490;28;20317;-73
2023/04/07 07:12:54;;;;;;;50.30;28.03;;;7.60;99.90;;;;;;5036793;28;20197;-76
2023/04/07 07:15:21;;;;;;;49.77;26.57;;;7.60;99.90;;;;;;5036471;28;20194;-74
2023/04/07 07:17:48;;;;;;;47.87;26.03;;;7.60;99.90;;;;;;5036508;28;20261;-74
2023/04/07 07:20:15;;;;;;;47.17;27.30;;;7.60;99.90;;;;;;5054359;28;20186;-75
2023/04/07 07:22:46;;;;;;;50.20;27.40;;;7.70;99.90;;;;;;5036253;28;20229;-77
2023/04/07 07:25:13;;;;;;;48.60;26.40;;;7.70;99.90;;;;;;5035687;28;20615;-78
2023/04/07 07:27:40;;;;;;;50.20;26.10;;;7.60;99.90;;;;;;5033930;28;20194;-76
2023/04/07 07:30:08;;;;;;;49.70;26.73;;;7.60;99.90;;;;;;5036307;28;20205;-74
2023/04/07 07:32:35;;;;;;;45.40;26.27;;;7.60;99.90;;;;;;5044321;28;20199;-78
2023/04/07 07:35:03;;;;;;;45.53;26.57;;;7.70;99.90;;;;;;5033811;28;20202;-78
2023/04/07 07:37:30;;;;;;;47.30;26.53;;;7.70;99.90;;;;;;5036256;28;20264;-81
2023/04/07 07:39:57;;;;;;;49.70;26.77;;;7.80;99.90;;;;;;5054281;28;20659;-75
2023/04/07 07:42:24;;;;;;;50.23;26.53;;;7.80;99.90;;;;;;5054027;28;20320;-76
2023/04/07 07:44:51;;;;;;;49.10;27.20;;;7.80;99.90;;;;;;5035914;28;20662;-77
2023/04/07 07:47:18;;;;;;;46.53;27.00;;;7.90;99.90;;;;;;5053924;28;20205;-80
2023/04/07 07:49:44;;;;;;;45.53;26.80;;;8.00;99.90;;;;;;5036177;28;20289;-78
2023/04/07 07:52:11;;;;;;;47.70;26.73;;;8.10;99.90;;;;;;5053903;28;20551;-76
2023/04/07 07:54:38;;;;;;;46.23;26.60;;;8.30;99.90;;;;;;5036042;28;20195;-77
2023/04/07 07:57:05;;;;;;;44.30;25.90;;;8.40;99.90;;;;;;5035879;28;20229;-77
2023/04/07 07:59:32;;;;;;;46.77;27.00;;;8.50;99.90;;;;;;5035788;28;20190;-78
2023/04/07 08:01:59;;;;;;;44.70;26.00;;;8.60;99.90;;;;;;5053968;28;20194;-77
2023/04/07 08:04:27;;;;;;;40.97;24.47;;;8.70;99.90;;;;;;5035731;28;20209;-78
2023/04/07 08:06:54;;;;;;;42.07;24.43;;;8.70;99.90;;;;;;5035536;28;20225;-78
2023/04/07 08:09:21;;;;;;;41.33;23.30;;;8.80;99.90;;;;;;5035675;28;20202;-77
2023/04/07 08:11:48;;;;;;;44.73;23.67;;;8.90;99.90;;;;;;5035162;28;20683;-75
2023/04/07 08:14:16;;;;;;;40.50;24.13;;;8.90;99.90;;;;;;5053177;28;20191;-75
2023/04/07 08:16:46;;;;;;;39.10;23.50;;;8.90;99.90;;;;;;5035602;28;20245;-74
2023/04/07 08:19:14;;;;;;;38.03;22.70;;;8.90;99.90;;;;;;5036713;28;20528;-74
2023/04/07 08:21:41;;;;;;;38.57;22.13;;;9.00;99.90;;;;;;5035617;28;20612;-77
2023/04/07 08:24:10;;;;;;;40.50;22.63;;;9.10;99.90;;;;;;5035829;28;20210;-75
2023/04/07 08:26:37;;;;;;;34.70;21.73;;;9.10;99.90;;;;;;5035546;28;20248;-81
2023/04/07 08:29:05;;;;;;;36.70;22.00;;;9.30;99.90;;;;;;5053236;28;20198;-74
2023/04/07 08:31:32;;;;;;;40.37;22.63;;;9.30;99.90;;;;;;5036206;28;20220;-78
2023/04/07 08:33:59;;;;;;;39.83;21.90;;;9.40;99.90;;;;;;5018765;28;20206;-76
2023/04/07 08:36:27;;;;;;;37.07;21.73;;;9.30;99.90;;;;;;5052811;28;20696;-77
2023/04/07 08:38:55;;;;;;;37.67;20.97;;;9.40;99.90;;;;;;5034978;28;20620;-80
2023/04/07 08:41:37;;;;;;;39.37;21.47;;;9.40;99.90;;;;;;5035351;28;20191;-82
2023/04/07 08:44:06;;;;;;;34.37;20.27;;;9.40;99.90;;;;;;4955473;28;20224;-84
2023/04/07 08:46:34;;;;;;;34.60;20.20;;;9.40;99.90;;;;;;4955940;28;20534;-84
2023/04/07 08:49:02;;;;;;;31.93;20.20;;;9.50;99.90;;;;;;4971985;28;20206;-82
2023/04/07 08:51:31;;;;;;;35.23;21.13;;;9.60;99.90;;;;;;4955904;28;20209;-79
2023/04/07 08:54:20;;;;;;;32.70;21.53;;;9.60;99.90;;;;;;4972152;28;20237;-84
2023/04/07 08:56:47;;;;;;;35.20;19.23;;;9.70;99.90;;;;;;4971560;28;20225;-84
2023/04/07 08:59:17;;;;;;;32.87;18.80;;;9.80;99.90;;;;;;4955867;28;20209;-82
2023/04/07 09:01:49;;;;;;;30.50;18.77;;;9.80;99.90;;;;;;4995735;28;20214;-85
2023/04/07 09:04:17;;;;;;;33.63;19.60;;;9.80;99.90;;;;;;5052847;28;20193;-83
2023/04/07 09:06:44;;;;;;;30.17;19.20;;;9.80;99.90;;;;;;5034645;28;20667;-82
2023/04/07 09:09:11;;;;;;;28.63;18.93;;;9.90;99.90;;;;;;5036690;28;20226;-78
2023/04/07 09:11:41;;;;;;;29.37;18.43;;;9.90;99.90;;;;;;5034769;28;20227;-77
2023/04/07 09:14:08;;;;;;;26.93;17.47;;;9.90;99.90;;;;;;5034036;28;20195;-76
2023/04/07 09:16:36;;;;;;;30.07;17.20;;;9.90;99.90;;;;;;5034735;28;20550;-84
2023/04/07 09:19:03;;;;;;;28.57;18.07;;;9.90;99.90;;;;;;5034526;28;20201;-80
2023/04/07 09:22:07;;;;;;;28.63;17.63;;;9.90;99.90;;;;;;5052734;28;20304;-84
2023/04/07 09:24:34;;;;;;;27.20;16.53;;;9.90;99.90;;;;;;4975361;28;20205;-78
2023/04/07 09:27:16;;;;;;;24.40;16.73;;;9.80;99.90;;;;;;4990947;28;20205;-84
2023/04/07 09:29:45;;;;;;;26.17;16.80;;;9.80;99.90;;;;;;4992914;28;20196;-84
2023/04/07 09:32:32;;;;;;;28.20;17.10;;;9.60;99.90;;;;;;4991962;28;20303;-84
2023/04/07 09:34:59;;;;;;;28.07;16.63;;;9.60;99.90;;;;;;4974839;28;20295;-84
2023/04/07 09:37:26;;;;;;;30.57;17.43;;;9.60;99.90;;;;;;4990681;28;20232;-85
2023/04/07 09:39:53;;;;;;;27.57;16.23;;;9.70;99.90;;;;;;4974716;28;20196;-84
2023/04/07 09:42:21;;;;;;;29.63;17.60;;;9.70;99.90;;;;;;4974792;28;20208;-85
2023/04/07 09:44:48;;;;;;;27.57;16.83;;;9.70;99.90;;;;;;4990881;28;20205;-85
2023/04/07 09:47:15;;;;;;;30.47;17.10;;;9.70;99.90;;;;;;4974746;28;20197;-84
2023/04/07 09:49:52;;;;;;;28.73;17.00;;;9.70;99.90;;;;;;4975277;28;20193;-85
2023/04/07 09:52:25;;;;;;;31.30;16.80;;;9.70;99.90;;;;;;4974917;28;20193;-79
2023/04/07 09:54:54;;;;;;;28.10;16.67;;;9.90;99.90;;;;;;4977533;28;20283;-85
2023/04/07 09:57:22;;;;;;;25.23;16.63;;;10.00;99.90;;;;;;4975798;28;20235;-79
2023/04/07 09:59:53;;;;;;;29.13;17.27;;;10.00;99.90;;;;;;5034412;28;20218;-82
2023/04/07 10:02:21;;;;;;;28.30;16.83;;;10.10;99.90;;;;;;5058856;28;20216;-83
2023/04/07 10:04:50;;;;;;;28.60;16.33;;;10.10;99.90;;;;;;5034499;28;20199;-85
2023/04/07 10:07:18;;;;;;;26.90;16.67;;;10.20;99.90;;;;;;5034685;28;20195;-86
2023/04/07 10:09:45;;;;;;;25.57;16.53;;;10.20;99.90;;;;;;5034368;28;20211;-85
2023/04/07 10:12:13;;;;;;;29.10;16.73;;;10.20;99.90;;;;;;5034358;28;20226;-85
2023/04/07 10:14:45;;;;;;;25.73;16.20;;;10.30;99.90;;;;;;5034534;28;20213;-86
2023/04/07 10:17:18;;;;;;;30.60;16.87;;;10.40;99.90;;;;;;5034846;28;20219;-80
2023/04/07 10:19:47;;;;;;;27.03;16.67;;;10.50;99.90;;;;;;5051895;28;20711;-80
2023/04/07 10:22:15;;;;;;;26.37;16.63;;;10.60;99.90;;;;;;5034611;28;20226;-79
2023/04/07 10:24:42;;;;;;;28.13;15.90;;;10.60;99.90;;;;;;5052161;28;20210;-78
2023/04/07 10:27:13;;;;;;;22.23;15.77;;;10.70;99.90;;;;;;5036663;28;20207;-76
2023/04/07 10:29:42;;;;;;;23.13;15.13;;;10.80;99.90;;;;;;5038329;28;20195;-79
2023/04/07 10:32:10;;;;;;;22.77;14.90;;;10.90;99.90;;;;;;5038274;28;20213;-77
2023/04/07 10:34:50;;;;;;;29.23;15.60;;;10.90;99.90;;;;;;5037375;28;20195;-80
2023/04/07 10:37:20;;;;;;;27.03;15.67;;;10.80;99.90;;;;;;5037198;28;20214;-78
2023/04/07 10:39:48;;;;;;;26.07;14.93;;;10.80;99.90;;;;;;5055346;28;20223;-76
2023/04/07 10:42:40;;;;;;;25.20;15.27;;;10.80;99.90;;;;;;5037228;28;20211;-78
2023/04/07 10:45:08;;;;;;;22.10;14.23;;;10.90;99.90;;;;;;5055193;28;20194;-78
2023/04/07 10:47:58;;;;;;;24.93;14.43;;;10.90;99.90;;;;;;5037150;28;20205;-77
2023/04/07 10:50:27;;;;;;;29.37;15.50;;;11.00;99.90;;;;;;5055266;28;20205;-76
2023/04/07 10:53:08;;;;;;;28.57;16.03;;;11.10;99.90;;;;;;5054969;28;20194;-77
2023/04/07 10:55:36;;;;;;;23.07;14.60;;;11.10;99.90;;;;;;5054614;28;20290;-76
2023/04/07 10:58:29;;;;;;;21.07;14.47;;;11.10;99.90;;;;;;5035684;28;20336;-78
2023/04/07 11:01:00;;;;;;;21.67;13.73;;;11.10;99.90;;;;;;5036720;28;20655;-77
2023/04/07 11:03:29;;;;;;;21.63;13.57;;;11.20;99.90;;;;;;5054600;28;20299;-78
2023/04/07 11:06:04;;;;;;;23.17;14.80;;;11.20;99.90;;;;;;5036727;28;20190;-77
2023/04/07 11:08:41;;;;;;;21.50;14.20;;;11.30;99.90;;;;;;5036712;28;20592;-76
2023/04/07 11:11:10;;;;;;;23.10;14.33;;;11.30;99.90;;;;;;5036353;28;20762;-81
2023/04/07 11:13:48;;;;;;;21.30;14.20;;;11.30;99.90;;;;;;5036648;28;20194;-77
2023/04/07 11:16:17;;;;;;;26.23;14.40;;;11.40;99.90;;;;;;5054781;28;20245;-82
2023/04/07 11:18:46;;;;;;;21.63;13.73;;;11.30;99.90;;;;;;5037014;28;20451;-77
2023/04/07 11:21:18;;;;;;;20.43;13.47;;;11.30;99.90;;;;;;5054486;28;20281;-76
2023/04/07 11:23:46;;;;;;;20.77;13.57;;;11.40;99.90;;;;;;5054401;28;20278;-77
2023/04/07 11:26:14;;;;;;;21.93;13.63;;;11.30;99.90;;;;;;5054220;28;20241;-77
2023/04/07 11:28:53;;;;;;;27.23;13.47;;;11.30;99.90;;;;;;5036130;28;20199;-77
2023/04/07 11:31:28;;;;;;;19.97;13.77;;;11.20;99.90;;;;;;5036441;28;20195;-81
2023/04/07 11:34:00;;;;;;;20.73;13.47;;;11.30;99.90;;;;;;5036498;28;20694;-79
2023/04/07 11:36:33;;;;;;;21.53;13.57;;;11.20;99.90;;;;;;5054238;28;20640;-79
2023/04/07 11:39:01;;;;;;;24.33;15.63;;;11.20;99.90;;;;;;5019744;28;20321;-76
2023/04/07 11:41:30;;;;;;;22.87;15.13;;;11.20;99.90;;;;;;5036471;28;20277;-77
2023/04/07 11:44:10;;;;;;;25.23;15.07;;;11.20;99.90;;;;;;5053714;28;20205;-79
2023/04/07 11:47:04;;;;;;;22.53;14.50;;;11.30;99.90;;;;;;5053661;28;20171;-78
2023/04/07 11:49:31;;;;;;;27.40;15.20;;;11.20;99.90;;;;;;5035958;28;20195;-79
2023/04/07 11:52:06;;;;;;;27.33;14.97;;;11.20;99.90;;;;;;5036243;28;20248;-76
2023/04/07 11:54:43;;;;;;;25.80;15.60;;;11.10;99.90;;;;;;5036637;28;20201;-81
2023/04/07 11:57:11;;;;;;;24.43;15.07;;;11.10;99.90;;;;;;5053845;28;20690;-77
2023/04/07 11:59:40;;;;;;;23.90;15.37;;;11.10;99.90;;;;;;5053996;28;20187;-81
2023/04/07 12:02:07;;;;;;;26.57;14.63;;;11.10;99.90;;;;;;5035707;28;20194;-81
2023/04/07 12:04:36;;;;;;;22.90;14.80;;;11.10;99.90;;;;;;5036023;28;20226;-85
2023/04/07 12:07:08;;;;;;;33.33;15.43;;;11.10;99.90;;;;;;5035586;28;20190;-77
2023/04/07 12:09:36;;;;;;;22.37;14.80;;;11.20;99.90;;;;;;5035988;28;20687;-76
2023/04/07 12:12:05;;;;;;;20.43;13.90;;;11.30;99.90;;;;;;5053222;28;20246;-75
2023/04/07 12:14:33;;;;;;;20.97;13.87;;;11.30;99.90;;;;;;5036008;28;20637;-75
2023/04/07 12:17:03;;;;;;;20.00;14.00;;;11.40;99.90;;;;;;5036093;28;20216;-79
2023/04/07 12:19:34;;;;;;;19.80;13.83;;;11.50;99.90;;;;;;5036209;28;20187;-75
2023/04/07 12:22:02;;;;;;;18.83;13.83;;;11.70;99.90;;;;;;5035373;28;20275;-77
2023/04/07 12:24:31;;;;;;;22.17;14.03;;;11.60;99.90;;;;;;5053047;28;20636;-75
2023/04/07 12:26:59;;;;;;;19.40;13.30;;;11.70;99.90;;;;;;5052901;28;20221;-75
2023/04/07 12:29:25;;;;;;;20.07;13.17;;;11.70;99.90;;;;;;5051247;28;20620;-74
2023/04/07 12:31:52;;;;;;;14.63;10.60;;;11.70;99.90;;;;;;5023739;28;20199;-75
2023/04/07 12:34:20;;;;;;;8.90;6.00;;;11.70;99.90;;;;;;5027313;28;20541;-76
2023/04/07 12:36:47;;;;;;;8.53;4.53;;;11.80;99.90;;;;;;5034744;28;20256;-76
2023/04/07 12:39:15;;;;;;;5.97;3.90;;;12.00;99.90;;;;;;5034707;28;20710;-76
2023/04/07 12:41:44;;;;;;;8.07;3.40;;;12.20;99.90;;;;;;5035451;28;20195;-75
2023/04/07 12:44:11;;;;;;;3.70;3.00;;;12.30;99.90;;;;;;5035007;28;20636;-77
2023/04/07 12:46:38;;;;;;;3.67;2.90;;;12.40;99.90;;;;;;5052839;22;20692;-78